Time;durP1;ratioP1;P1;durP2;ratioP2;P2;SDS_P1;SDS_P2;PMS_P1;PMS_P2;Temp;Humidity;BMP_temperature;BMP_pressure;BME280_temperature;BME280_humidity;BME280_pressure;Samples;Min_cycle;Max_cycle;Signal;HPM_P1;HPM_P2
2021/11/01 00:01:11;;;;;;;30.80;21.90;;;;;;;7.83;69.89;100031.40;85913;1313;80313;-65
2021/11/01 00:03:23;;;;;;;29.00;20.70;;;;;;;7.82;70.00;100033.57;85944;1320;82357;-63
2021/11/01 00:05:36;;;;;;;26.40;19.30;;;;;;;7.83;70.34;100031.85;85942;1320;98210;-62
2021/11/01 00:07:45;;;;;;;29.10;19.80;;;;;;;7.83;70.19;100030.77;85986;1313;88571;-63
2021/11/01 00:09:58;;;;;;;31.20;21.30;;;;;;;7.77;70.09;100028.69;85936;1316;93797;-63
2021/11/01 00:12:09;;;;;;;30.00;20.50;;;;;;;7.75;70.20;100029.35;85799;1314;81279;-64
2021/11/01 00:14:22;;;;;;;35.30;22.80;;;;;;;7.69;70.11;100031.23;85967;1314;82881;-63
2021/11/01 00:16:32;;;;;;;31.10;22.20;;;;;;;7.69;70.37;100032.36;85948;1317;97042;-64
2021/11/01 00:18:42;;;;;;;29.20;21.80;;;;;;;7.67;70.17;100034.26;85934;1317;86975;-63
2021/11/01 00:20:55;;;;;;;28.70;20.40;;;;;;;7.67;70.52;100031.66;85934;1317;95278;-64
2021/11/01 00:23:04;;;;;;;36.60;24.20;;;;;;;7.66;70.44;100028.95;85969;1320;79095;-63
2021/11/01 00:25:16;;;;;;;39.10;26.10;;;;;;;7.65;70.69;100023.89;85926;1313;82252;-64
2021/11/01 00:27:26;;;;;;;33.10;23.00;;;;;;;7.63;70.61;100021.74;85942;1313;98437;-63
2021/11/01 00:29:38;;;;;;;31.80;21.90;;;;;;;7.64;70.61;100016.67;85934;1320;89152;-63
2021/11/01 00:31:47;;;;;;;30.80;21.60;;;;;;;7.62;70.79;100015.20;85911;1319;95495;-66
2021/11/01 00:34:01;;;;;;;31.20;21.00;;;;;;;7.60;70.83;100018.75;85937;1317;78646;-63
2021/11/01 00:36:11;;;;;;;30.60;20.00;;;;;;;7.59;70.86;100018.16;85967;1314;81808;-63
2021/11/01 00:38:23;;;;;;;28.20;18.20;;;;;;;7.57;70.78;100012.27;85932;1313;98302;-65
2021/11/01 00:40:35;;;;;;;32.70;21.40;;;;;;;7.52;71.26;100009.46;85904;1320;88797;-64
2021/11/01 00:42:45;;;;;;;31.10;21.50;;;;;;;7.48;71.10;100007.61;85918;1319;96435;-64
2021/11/01 00:44:58;;;;;;;31.30;20.30;;;;;;;7.43;71.04;100004.77;85923;1317;77468;-65
2021/11/01 00:47:16;;;;;;;28.00;19.70;;;;;;;7.43;71.16;100003.69;85929;1313;82346;-63
2021/11/01 00:49:25;;;;;;;32.60;20.00;;;;;;;7.39;71.42;100002.17;85946;1317;98461;-63
2021/11/01 00:51:38;;;;;;;27.20;19.10;;;;;;;7.34;71.72;99993.30;85913;1317;88918;-63
2021/11/01 00:53:50;;;;;;;31.00;20.70;;;;;;;7.32;71.51;99988.92;85935;1313;93748;-62
2021/11/01 00:56:00;;;;;;;29.00;20.10;;;;;;;7.33;71.87;99986.33;85945;1316;79548;-62
2021/11/01 00:58:13;;;;;;;32.10;21.80;;;;;;;7.32;71.55;99984.48;85975;1313;83696;-63
2021/11/01 01:00:23;;;;;;;34.30;20.70;;;;;;;7.30;71.93;99983.66;85961;1317;99602;-64
2021/11/01 01:02:35;;;;;;;33.00;21.50;;;;;;;7.28;71.91;99982.39;85965;1313;89116;-63
2021/11/01 01:04:48;;;;;;;33.60;21.10;;;;;;;7.28;71.98;99977.40;85965;1320;95347;-64
2021/11/01 01:07:01;;;;;;;32.40;20.20;;;;;;;7.27;71.94;99978.34;85938;1317;82550;-63
2021/11/01 01:09:10;;;;;;;30.90;22.60;;;;;;;7.29;71.84;99977.29;85946;1314;81837;-62
2021/11/01 01:11:20;;;;;;;28.40;21.90;;;;;;;7.31;72.20;99975.26;85951;1320;99550;-62
2021/11/01 01:13:35;;;;;;;33.60;21.90;;;;;;;7.31;72.42;99976.67;85951;1317;88925;-64
2021/11/01 01:15:51;;;;;;;31.50;21.30;;;;;;;7.31;72.44;99974.01;85920;1320;95963;-63
2021/11/01 01:18:06;;;;;;;30.10;20.70;;;;;;;7.31;72.11;99969.92;85963;1317;82133;-64
2021/11/01 01:20:18;;;;;;;31.60;20.90;;;;;;;7.31;72.48;99964.87;85821;1318;82461;-63
2021/11/01 01:22:31;;;;;;;27.40;20.40;;;;;;;7.29;72.65;99962.74;85908;1313;99374;-63
2021/11/01 01:24:40;;;;;;;33.50;22.60;;;;;;;7.29;72.25;99962.94;85924;1313;88771;-63
2021/11/01 01:26:52;;;;;;;30.50;21.80;;;;;;;7.25;72.20;99964.52;85949;1316;94788;-63
2021/11/01 01:29:05;;;;;;;29.70;20.30;;;;;;;7.20;72.34;99964.23;85933;1314;79509;-63
2021/11/01 01:31:17;;;;;;;30.20;20.10;;;;;;;7.15;72.64;99963.86;85947;1313;82826;-63
2021/11/01 01:33:27;;;;;;;36.80;22.30;;;;;;;7.13;72.66;99961.75;85964;1319;98447;-62
2021/11/01 01:35:39;;;;;;;31.20;22.20;;;;;;;7.12;72.62;99959.86;85939;1313;89088;-62
2021/11/01 01:37:52;;;;;;;29.90;21.50;;;;;;;7.13;72.58;99953.72;85924;1316;95676;-63
2021/11/01 01:40:02;;;;;;;31.00;22.20;;;;;;;7.14;72.65;99959.54;85954;1316;77733;-63
2021/11/01 01:42:12;;;;;;;33.80;22.30;;;;;;;7.10;72.87;99955.25;85953;1316;80827;-65
2021/11/01 01:44:21;;;;;;;31.60;21.60;;;;;;;7.05;72.76;99950.52;85930;1313;99505;-63
2021/11/01 01:46:34;;;;;;;31.60;21.00;;;;;;;7.03;72.90;99950.97;85948;1313;89608;-62
2021/11/01 01:48:43;;;;;;;30.30;21.60;;;;;;;7.01;72.98;99947.61;85938;1313;94445;-64
2021/11/01 01:50:53;;;;;;;29.80;21.80;;;;;;;7.02;72.96;99944.63;85949;1313;80795;-63
2021/11/01 01:53:03;;;;;;;33.20;22.80;;;;;;;6.99;73.13;99939.61;85962;1320;81994;-63
2021/11/01 01:55:16;;;;;;;31.40;21.70;;;;;;;6.96;73.13;99936.88;85928;1315;98150;-64
2021/11/01 01:57:29;;;;;;;30.60;21.10;;;;;;;6.94;72.86;99934.32;85923;1313;87577;-63
2021/11/01 01:59:39;;;;;;;31.30;20.90;;;;;;;6.89;72.78;99932.66;85940;1318;96102;-62
2021/11/01 02:01:50;;;;;;;32.10;21.10;;;;;;;6.87;73.07;99933.30;85936;1316;80582;-63
2021/11/01 02:04:00;;;;;;;29.50;21.30;;;;;;;6.86;73.03;99930.98;85939;1314;83562;-63
2021/11/01 02:06:13;;;;;;;36.50;23.40;;;;;;;6.84;73.12;99928.54;85946;1313;97143;-63
2021/11/01 02:08:23;;;;;;;33.50;21.30;;;;;;;6.82;73.52;99921.39;85961;1313;88187;-63
2021/11/01 02:10:42;;;;;;;29.30;19.80;;;;;;;6.78;73.22;99920.91;85938;1313;95194;-65
2021/11/01 02:12:58;;;;;;;32.10;21.00;;;;;;;6.74;73.41;99916.73;85891;1316;81775;-63
2021/11/01 02:15:17;;;;;;;32.30;21.90;;;;;;;6.72;73.44;99917.42;85932;1313;81110;-64
2021/11/01 02:17:29;;;;;;;30.20;20.50;;;;;;;6.70;73.11;99918.31;85919;1313;99030;-65
2021/11/01 02:19:48;;;;;;;31.30;21.80;;;;;;;6.68;73.24;99913.48;85915;1316;87607;-62
2021/11/01 02:22:04;;;;;;;35.50;22.70;;;;;;;6.65;73.45;99911.73;85900;1313;95558;-63
2021/11/01 02:24:41;;;;;;;31.60;21.00;;;;;;;6.61;73.75;99915.94;85903;1313;81508;-66
2021/11/01 02:26:53;;;;;;;32.20;21.10;;;;;;;6.57;73.58;99916.46;85933;1319;80729;-65
2021/11/01 02:29:03;;;;;;;31.10;21.60;;;;;;;6.53;73.77;99916.46;85796;1317;99018;-64
2021/11/01 02:31:20;;;;;;;32.10;21.30;;;;;;;6.54;73.81;99911.30;85912;1313;87175;-63
2021/11/01 02:33:30;;;;;;;27.00;19.20;;;;;;;6.55;73.83;99907.36;85868;1313;94451;-64
2021/11/01 02:35:40;;;;;;;30.80;18.90;;;;;;;6.51;73.67;99906.36;85910;1314;80876;-63
2021/11/01 02:37:53;;;;;;;33.90;22.20;;;;;;;6.44;74.39;99896.37;85950;1316;82753;-65
2021/11/01 02:40:02;;;;;;;30.30;20.00;;;;;;;6.43;74.03;99898.69;85942;1314;98820;-64
2021/11/01 02:42:16;;;;;;;32.70;22.10;;;;;;;6.43;74.04;99901.52;85972;1313;88309;-64
2021/11/01 02:44:28;;;;;;;31.50;21.20;;;;;;;6.42;74.01;99900.08;85898;1314;95811;-65
2021/11/01 02:46:38;;;;;;;32.60;20.60;;;;;;;6.41;74.37;99905.67;85944;1313;78183;-64
2021/11/01 02:48:52;;;;;;;34.00;21.40;;;;;;;6.38;73.94;99899.21;85949;1313;82985;-64
2021/11/01 02:51:02;;;;;;;33.40;22.50;;;;;;;6.37;74.28;99896.73;85923;1317;97328;-63
2021/11/01 02:53:14;;;;;;;28.50;20.90;;;;;;;6.37;73.98;99891.33;85945;1312;88060;-63
2021/11/01 02:55:28;;;;;;;30.50;20.70;;;;;;;6.34;74.15;99889.48;85925;1314;95152;-63
2021/11/01 02:57:37;;;;;;;36.10;22.90;;;;;;;6.32;73.96;99893.14;85942;1314;79813;-63
2021/11/01 02:59:50;;;;;;;31.80;20.60;;;;;;;6.30;73.97;99891.77;85925;1316;82594;-64
2021/11/01 03:02:02;;;;;;;31.70;20.50;;;;;;;6.28;74.24;99890.91;85922;1313;99056;-64
2021/11/01 03:04:12;;;;;;;27.80;19.40;;;;;;;6.27;74.05;99891.55;85964;1317;88528;-63
2021/11/01 03:06:28;;;;;;;31.70;22.20;;;;;;;6.27;74.15;99894.63;85900;1313;94715;-64
2021/11/01 03:08:38;;;;;;;32.00;22.60;;;;;;;6.27;74.12;99891.92;85934;1313;78618;-64
2021/11/01 03:10:52;;;;;;;32.80;21.60;;;;;;;6.25;74.22;99891.29;85944;1313;81087;-66
2021/11/01 03:13:03;;;;;;;31.00;21.20;;;;;;;6.21;74.37;99889.43;85934;1313;99684;-62
2021/11/01 03:15:20;;;;;;;30.30;20.30;;;;;;;6.20;74.47;99891.67;85946;1313;86633;-63
2021/11/01 03:17:37;;;;;;;33.40;21.60;;;;;;;6.18;74.84;99883.68;85923;1317;94759;-64
2021/11/01 03:19:53;;;;;;;28.90;20.10;;;;;;;6.16;74.76;99880.40;85891;1314;78083;-63
2021/11/01 03:22:09;;;;;;;31.20;21.30;;;;;;;6.13;74.50;99881.25;85949;1317;82760;-64
2021/11/01 03:24:22;;;;;;;31.80;21.40;;;;;;;6.10;74.54;99878.42;85954;1320;98668;-64
2021/11/01 03:26:35;;;;;;;30.60;20.60;;;;;;;6.08;74.83;99873.76;85950;1313;88638;-64
2021/11/01 03:28:51;;;;;;;30.80;21.10;;;;;;;6.07;74.79;99873.90;85948;1316;95617;-63
2021/11/01 03:31:07;;;;;;;31.00;20.80;;;;;;;6.06;74.81;99879.51;85901;1314;80089;-62
2021/11/01 03:33:18;;;;;;;28.40;20.10;;;;;;;6.06;74.67;99875.65;85947;1319;82046;-64
2021/11/01 03:35:31;;;;;;;30.00;20.60;;;;;;;6.03;74.52;99871.91;85914;1313;98869;-64
2021/11/01 03:37:42;;;;;;;34.40;20.80;;;;;;;6.01;74.84;99872.75;85948;1316;88378;-64
2021/11/01 03:39:52;;;;;;;29.70;20.00;;;;;;;5.98;75.01;99871.72;85925;1313;92542;-64
2021/11/01 03:42:05;;;;;;;30.40;20.90;;;;;;;5.97;74.83;99869.67;85913;1312;79502;-64
2021/11/01 03:44:19;;;;;;;32.70;20.60;;;;;;;5.95;74.97;99868.85;85960;1313;82156;-63
2021/11/01 03:46:38;;;;;;;30.10;20.90;;;;;;;5.94;75.14;99869.45;85899;1316;98330;-65
2021/11/01 03:48:52;;;;;;;30.30;19.80;;;;;;;5.93;74.86;99865.27;85936;1314;86380;-65
2021/11/01 03:51:05;;;;;;;29.80;20.50;;;;;;;5.92;74.89;99863.48;85921;1312;95752;-62
2021/11/01 03:53:18;;;;;;;35.00;21.30;;;;;;;5.89;74.94;99863.95;85925;1314;79550;-63
2021/11/01 03:55:29;;;;;;;28.80;19.10;;;;;;;5.89;75.12;99865.25;85898;1317;80723;-64
2021/11/01 03:57:39;;;;;;;27.90;20.00;;;;;;;5.85;75.41;99863.29;85858;1313;98993;-64
2021/11/01 03:59:49;;;;;;;32.60;21.40;;;;;;;5.85;75.18;99859.98;85906;1314;87993;-64
2021/11/01 04:02:01;;;;;;;28.40;19.80;;;;;;;5.84;75.43;99856.67;85932;1313;95862;-64
2021/11/01 04:04:11;;;;;;;29.50;20.70;;;;;;;5.81;75.21;99858.02;85944;1320;81388;-64
2021/11/01 04:06:23;;;;;;;32.80;21.10;;;;;;;5.79;75.06;99854.56;85938;1314;79905;-65
2021/11/01 04:08:32;;;;;;;32.00;21.10;;;;;;;5.76;75.01;99854.70;85943;1317;97235;-65
2021/11/01 04:10:42;;;;;;;27.80;19.90;;;;;;;5.75;75.10;99853.95;85935;1319;88226;-62
2021/11/01 04:12:54;;;;;;;27.70;20.80;;;;;;;5.76;75.05;99856.85;85948;1319;93568;-65
2021/11/01 04:15:11;;;;;;;32.10;21.40;;;;;;;5.74;75.32;99855.09;85951;1317;78185;-64
2021/11/01 04:17:25;;;;;;;28.50;19.10;;;;;;;5.71;75.31;99850.92;85935;1313;82927;-64
2021/11/01 04:19:42;;;;;;;;;;;;;;;5.69;75.46;99849.77;85929;1317;98646;-63
2021/11/01 04:21:57;;;;;;;30.10;20.10;;;;;;;5.65;75.47;99840.36;85917;1314;88573;-63
2021/11/01 04:24:06;;;;;;;29.80;19.90;;;;;;;5.62;75.33;99836.95;85908;1313;95447;-63
2021/11/01 04:26:17;;;;;;;29.90;20.00;;;;;;;5.62;75.56;99837.02;85917;1318;80509;-63
2021/11/01 04:28:27;;;;;;;33.20;21.00;;;;;;;5.59;75.91;99836.27;85894;1316;80282;-64
2021/11/01 04:30:39;;;;;;;29.50;20.10;;;;;;;5.59;75.82;99834.52;85908;1317;98452;-63
2021/11/01 04:32:55;;;;;;;29.70;20.70;;;;;;;5.56;75.61;99834.42;85928;1314;86524;-63
2021/11/01 04:35:09;;;;;;;28.00;19.30;;;;;;;5.55;75.68;99832.95;85908;1313;95672;-64
2021/11/01 04:37:19;;;;;;;32.00;20.10;;;;;;;5.53;75.91;99827.47;85860;1316;79061;-63
2021/11/01 04:39:37;;;;;;;30.20;21.30;;;;;;;5.50;76.02;99831.56;85802;1314;81261;-65
2021/11/01 04:42:07;;;;;;;32.60;21.10;;;;;;;5.50;76.00;99830.19;85950;1313;97789;-64
2021/11/01 04:54:09;;;;;;;28.90;21.20;;;;;;;5.30;76.80;99821.79;85931;1313;98402;-63
2021/11/01 04:56:23;;;;;;;29.30;20.30;;;;;;;5.29;76.21;99817.81;85972;1313;87073;-63
2021/11/01 04:58:41;;;;;;;31.30;21.40;;;;;;;5.27;76.37;99818.70;85919;1314;95271;-64
2021/11/01 05:00:52;;;;;;;27.80;20.10;;;;;;;5.25;76.26;99816.13;85888;1314;79158;-62
2021/11/01 05:03:06;;;;;;;29.90;21.10;;;;;;;5.19;76.21;99814.80;85899;1313;83848;-63
2021/11/01 05:05:16;;;;;;;32.10;22.20;;;;;;;5.18;76.36;99813.58;85928;1313;98336;-64
2021/11/01 05:07:27;;;;;;;33.70;21.70;;;;;;;5.14;76.61;99817.15;85883;1315;88672;-62
2021/11/01 05:09:39;;;;;;;31.90;21.30;;;;;;;5.13;76.48;99810.98;85906;1313;96161;-63
2021/11/01 05:11:59;;;;;;;30.10;21.10;;;;;;;5.15;77.04;99809.09;85754;1316;80625;-63
2021/11/01 05:14:14;;;;;;;30.70;22.10;;;;;;;5.12;76.76;99804.54;85934;1313;82177;-63
2021/11/01 05:16:37;;;;;;;32.80;21.40;;;;;;;5.10;77.05;99806.88;85901;1313;99675;-64
2021/11/01 05:18:50;;;;;;;37.30;23.40;;;;;;;5.09;77.10;99805.44;85906;1319;87823;-63
2021/11/01 05:21:16;;;;;;;27.10;16.90;;;;;;;5.08;77.31;99805.73;85812;1317;92909;-64
2021/11/01 05:23:31;;;;;;;28.00;20.60;;;;;;;5.05;77.83;99804.46;85919;1319;81059;-65
2021/11/01 05:25:47;;;;;;;31.10;21.50;;;;;;;5.04;77.62;99806.19;85903;1317;80892;-66
2021/11/01 05:28:07;;;;;;;34.40;21.70;;;;;;;5.05;77.31;99807.27;85944;1319;99468;-63
2021/11/01 05:30:19;;;;;;;31.50;20.90;;;;;;;5.05;77.68;99809.49;85923;1313;89075;-62
2021/11/01 05:32:29;;;;;;;31.20;20.50;;;;;;;5.02;77.32;99809.60;85879;1313;94439;-64
2021/11/01 05:34:39;;;;;;;31.50;21.50;;;;;;;5.02;77.62;99813.21;85905;1313;78429;-66
2021/11/01 05:36:49;;;;;;;32.60;20.80;;;;;;;5.00;77.54;99810.16;85928;1313;82321;-66
2021/11/01 05:38:59;;;;;;;31.10;22.20;;;;;;;4.99;77.57;99812.15;85915;1313;99592;-67
2021/11/01 05:41:09;;;;;;;29.30;21.60;;;;;;;5.01;77.85;99813.48;85924;1317;88754;-68
2021/11/01 05:43:18;;;;;;;27.10;20.30;;;;;;;5.00;77.82;99812.01;85897;1312;95556;-66
2021/11/01 05:45:29;;;;;;;31.90;23.60;;;;;;;4.97;77.77;99809.39;85899;1313;82032;-66
2021/11/01 05:47:45;;;;;;;30.40;19.90;;;;;;;4.96;77.57;99815.13;85930;1314;79666;-64
2021/11/01 05:49:58;;;;;;;28.80;20.80;;;;;;;4.97;77.57;99815.55;85748;1317;99052;-63
2021/11/01 05:52:16;;;;;;;29.40;20.90;;;;;;;5.00;77.53;99811.41;85944;1316;86884;-63
2021/11/01 05:54:31;;;;;;;29.20;21.80;;;;;;;5.06;77.62;99815.08;85892;1313;93742;-66
2021/11/01 05:56:50;;;;;;;31.80;21.40;;;;;;;5.07;77.88;99814.96;85869;1312;78822;-66
2021/11/01 06:01:42;;;;;;;35.40;21.70;;;;;;;5.07;77.86;99813.34;85795;1313;98015;-67
2021/11/01 06:04:00;;;;;;;29.60;20.70;;;;;;;5.10;77.64;99812.98;85911;1312;88844;-69
2021/11/01 06:06:32;;;;;;;28.50;20.80;;;;;;;5.14;77.73;99817.19;85878;1313;95502;-66
2021/11/01 06:09:04;;;;;;;30.50;21.90;;;;;;;5.19;77.58;99816.21;85925;1313;77023;-64
2021/11/01 06:13:44;;;;;;;32.40;21.70;;;;;;;5.22;77.56;99818.11;85873;1316;98812;-67
2021/11/01 06:15:54;;;;;;;29.20;19.50;;;;;;;5.23;77.98;99818.09;85877;1319;88019;-65
2021/11/01 06:18:07;;;;;;;31.80;21.60;;;;;;;5.26;77.87;99819.05;85881;1313;93894;-67
2021/11/01 06:20:18;;;;;;;30.50;20.70;;;;;;;5.35;78.05;99818.57;85948;1313;80600;-64
2021/11/01 06:22:30;;;;;;;29.30;20.60;;;;;;;5.61;78.57;99811.70;85889;1313;81589;-63
2021/11/01 06:24:49;;;;;;;30.10;18.60;;;;;;;6.47;78.71;99803.44;85916;1313;98064;-65
2021/11/01 06:26:59;;;;;;;25.60;20.10;;;;;;;7.66;77.31;99801.19;85930;1313;88830;-62
2021/11/01 06:29:09;;;;;;;29.00;21.00;;;;;;;8.44;75.82;99797.94;85918;1316;96068;-63
2021/11/01 06:31:23;;;;;;;27.30;21.10;;;;;;;9.55;75.27;99796.57;85897;1313;78092;-66
2021/11/01 06:33:51;;;;;;;24.10;19.40;;;;;;;10.51;72.81;99795.13;85833;1313;81706;-62
2021/11/01 06:41:14;;;;;;;22.90;18.30;;;;;;;11.97;68.93;99789.88;85930;1313;95382;-65
2021/11/01 06:43:29;;;;;;;23.80;18.00;;;;;;;12.40;66.06;99789.55;85922;1313;78723;-62
2021/11/01 06:50:57;;;;;;;21.90;17.70;;;;;;;12.73;64.14;99788.32;85926;1316;87353;-64
2021/11/01 06:53:27;;;;;;;19.40;16.80;;;;;;;13.61;63.17;99792.81;85888;1316;93974;-62
2021/11/01 06:56:01;;;;;;;22.10;17.30;;;;;;;14.50;61.91;99787.67;85887;1317;80422;-63
2021/11/01 07:15:36;;;;;;;17.10;15.30;;;;;;;17.03;52.94;99783.63;85916;1316;89568;-64
2021/11/01 07:17:58;;;;;;;18.50;16.00;;;;;;;17.06;51.29;99782.31;85922;1313;95080;-65
2021/11/01 07:20:21;;;;;;;19.40;16.00;;;;;;;17.53;52.17;99782.82;85906;1317;80499;-65
2021/11/01 07:22:59;;;;;;;19.40;16.40;;;;;;;18.26;49.98;99783.51;85950;1313;82993;-66
2021/11/01 07:30:44;;;;;;;18.50;15.60;;;;;;;19.12;48.20;99774.07;85612;1319;94288;-67
2021/11/01 08:22:58;;;;;;;16.60;14.80;;;;;;;15.33;46.74;99747.31;85834;1317;79617;-64
2021/11/01 08:25:36;;;;;;;16.60;14.00;;;;;;;15.16;47.03;99742.54;85878;1313;82876;-63
2021/11/01 08:28:14;;;;;;;19.10;15.70;;;;;;;14.53;47.78;99746.19;85793;1316;98303;-62
2021/11/01 08:36:02;;;;;;;18.10;14.30;;;;;;;14.56;49.01;99739.80;85893;1320;77823;-64
2021/11/01 08:38:33;;;;;;;17.10;13.90;;;;;;;15.56;48.36;99738.66;85908;1313;81304;-62
2021/11/01 09:05:53;;;;;;;15.20;12.90;;;;;;;21.04;40.82;99707.76;85893;1313;98470;-75
2021/11/01 09:08:20;;;;;;;15.00;13.40;;;;;;;21.23;40.71;99705.18;85923;1316;88348;-60
2021/11/01 09:18:48;;;;;;;14.20;12.70;;;;;;;22.17;38.99;99703.92;85605;1322;97677;-61
2021/11/01 09:21:26;;;;;;;21.00;18.80;;;;;;;22.12;38.28;99705.56;85869;1320;88454;-61
2021/11/01 09:23:45;;;;;;;17.80;15.80;;;;;;;22.10;38.34;99701.98;85893;1313;96053;-60
2021/11/01 09:26:04;;;;;;;15.00;13.40;;;;;;;21.98;37.99;99700.05;85903;1320;79005;-61
2021/11/01 09:28:24;;;;;;;14.10;12.70;;;;;;;21.75;38.06;99698.99;85942;1315;83129;-64
2021/11/01 09:35:56;;;;;;;14.60;13.10;;;;;;;21.26;37.27;99702.92;85619;1319;96013;-65
2021/11/01 09:41:01;;;;;;;15.40;13.30;;;;;;;21.45;37.80;99697.58;85683;1320;83377;-63
2021/11/01 09:43:12;;;;;;;14.40;12.90;;;;;;;21.56;37.89;99693.10;85941;1313;97011;-67
2021/11/01 09:45:24;;;;;;;14.20;12.70;;;;;;;21.57;37.59;99693.05;85641;1317;89735;-65
2021/11/01 09:47:42;;;;;;;14.40;12.90;;;;;;;21.11;36.97;99689.06;85772;1316;95744;-65
2021/11/01 09:49:52;;;;;;;13.90;12.50;;;;;;;20.64;37.47;99683.55;85929;1313;79550;-65
2021/11/01 09:52:08;;;;;;;16.00;13.70;;;;;;;20.53;37.55;99677.05;85902;1313;81669;-65
2021/11/01 09:54:22;;;;;;;15.50;13.40;;;;;;;20.43;37.46;99673.23;85876;1313;98687;-63
2021/11/01 09:56:46;;;;;;;15.10;13.30;;;;;;;20.10;37.89;99678.88;85913;1319;88019;-63
2021/11/01 09:59:15;;;;;;;;;;;;;;;19.61;38.33;99676.73;85934;1314;94891;-67
2021/11/01 10:01:28;;;;;;;16.00;13.50;;;;;;;19.04;39.06;99677.02;85775;1316;79611;-65
2021/11/01 10:03:41;;;;;;;;;;;;;;;18.53;39.61;99675.46;85960;1313;82213;-63
2021/11/01 10:06:01;;;;;;;15.70;13.10;;;;;;;17.74;39.99;99678.24;85895;1320;97640;-64
2021/11/01 10:08:25;;;;;;;15.10;13.40;;;;;;;16.82;41.05;99676.02;85780;1316;88189;-66
2021/11/01 10:10:47;;;;;;;15.50;13.60;;;;;;;16.21;42.01;99669.77;85911;1313;95281;-63
2021/11/01 10:12:57;;;;;;;15.50;13.90;;;;;;;15.91;42.74;99671.08;85920;1313;78870;-66
2021/11/01 10:17:54;;;;;;;18.00;14.10;;;;;;;15.06;44.26;99669.42;85948;1313;97383;-61
2021/11/01 10:20:20;;;;;;;14.90;12.80;;;;;;;14.85;44.80;99663.86;85920;1317;89808;-63
2021/11/01 10:22:39;;;;;;;18.00;14.30;;;;;;;14.57;45.46;99663.92;85960;1316;95723;-62
2021/11/01 10:24:58;;;;;;;18.90;14.40;;;;;;;14.43;46.02;99659.28;85883;1313;80121;-62
2021/11/01 10:27:12;;;;;;;15.30;13.30;;;;;;;14.33;46.44;99660.98;85653;1316;82897;-63
2021/11/01 10:29:25;;;;;;;16.70;14.10;;;;;;;14.07;46.83;99650.77;85924;1313;97943;-62
2021/11/01 10:31:48;;;;;;;17.40;14.20;;;;;;;14.00;47.08;99652.52;85933;1313;89714;-67
2021/11/01 10:34:12;;;;;;;19.30;14.70;;;;;;;13.90;47.39;99651.11;85926;1314;92748;-63
2021/11/01 10:36:33;;;;;;;17.00;13.90;;;;;;;13.88;47.76;99648.30;85898;1314;78448;-64
2021/11/01 10:38:53;;;;;;;19.20;14.30;;;;;;;13.83;48.07;99650.59;85633;1323;80646;-62
2021/11/01 10:41:17;;;;;;;18.60;14.70;;;;;;;13.66;48.36;99646.58;85766;1316;99211;-61
2021/11/01 11:11:22;;;;;;;19.90;13.90;;;;;;;12.99;50.99;99631.21;85734;1316;95975;-65
2021/11/01 11:13:42;;;;;;;16.10;12.70;;;;;;;13.04;51.25;99628.33;85929;1313;79218;-66
2021/11/01 11:15:54;;;;;;;20.30;15.90;;;;;;;12.96;51.16;99627.83;85928;1320;81384;-67
2021/11/01 11:18:15;;;;;;;15.50;12.40;;;;;;;12.97;51.22;99634.46;85940;1313;98542;-62
2021/11/01 11:20:43;;;;;;;18.30;13.10;;;;;;;12.92;51.16;99627.59;85903;1314;87494;-61
2021/11/01 11:31:13;;;;;;;20.70;14.90;;;;;;;12.99;51.72;99616.33;85869;1313;98078;-67
2021/11/01 11:47:26;;;;;;;19.70;13.20;;;;;;;12.94;52.45;99605.79;84750;1332;81925;-65
2021/11/01 11:49:39;;;;;;;17.20;13.80;;;;;;;12.95;52.59;99606.52;84917;1328;96505;-66
2021/11/01 11:52:12;;;;;;;17.90;12.90;;;;;;;12.99;52.45;99606.11;85656;1309;89069;-67
2021/11/01 11:54:42;;;;;;;18.80;13.80;;;;;;;12.97;52.90;99603.13;85692;1317;95227;-66
2021/11/01 11:56:54;;;;;;;18.30;13.30;;;;;;;12.94;52.93;99603.20;85582;1317;78028;-67
2021/11/01 11:59:05;;;;;;;15.50;13.00;;;;;;;12.94;53.02;99603.45;85751;1320;82486;-66
2021/11/01 12:01:30;;;;;;;15.10;12.40;;;;;;;12.95;53.16;99600.98;85772;1321;97043;-63
2021/11/01 12:03:44;;;;;;;17.70;13.10;;;;;;;12.90;53.21;99596.56;85790;1317;88409;-63
2021/11/01 12:06:11;;;;;;;17.50;12.90;;;;;;;12.90;53.22;99599.91;85758;1317;95904;-67
2021/11/01 12:08:25;;;;;;;19.00;14.10;;;;;;;12.86;53.41;99598.78;85736;1316;79439;-66
2021/11/01 12:13:39;;;;;;;16.40;12.90;;;;;;;12.85;53.51;99591.38;85390;1322;97979;-66
2021/11/01 12:18:33;;;;;;;16.40;12.80;;;;;;;12.84;53.33;99589.04;85736;1316;94589;-66
2021/11/01 12:20:43;;;;;;;17.10;13.40;;;;;;;12.82;53.45;99583.73;85815;1317;77349;-64
2021/11/01 12:23:02;;;;;;;14.80;12.70;;;;;;;12.82;53.44;99583.34;85794;1317;83137;-62
2021/11/01 12:25:29;;;;;;;16.20;12.60;;;;;;;12.80;53.58;99579.39;85810;1320;97726;-62
2021/11/01 12:27:56;;;;;;;14.10;11.40;;;;;;;12.81;53.54;99578.61;85763;1316;88388;-65
2021/11/01 12:30:19;;;;;;;13.50;11.20;;;;;;;12.80;53.58;99586.33;85803;1316;95847;-63
2021/11/01 12:32:36;;;;;;;16.00;11.40;;;;;;;12.80;53.58;99585.36;85824;1315;77198;-66
2021/11/01 12:34:58;;;;;;;14.90;12.40;;;;;;;12.81;53.49;99582.85;85796;1316;83369;-61
2021/11/01 12:37:19;;;;;;;14.40;11.50;;;;;;;12.81;53.48;99581.98;85795;1317;96943;-62
2021/11/01 12:39:35;;;;;;;14.00;11.40;;;;;;;12.82;53.28;99583.47;85671;1320;87458;-65
2021/11/01 12:42:33;;;;;;;13.70;10.60;;;;;;;12.83;53.14;99582.04;85781;1315;92716;-62
2021/11/01 12:57:49;;;;;;;14.90;11.60;;;;;;;12.81;53.23;99578.98;85420;1322;89052;-66
2021/11/01 13:00:00;;;;;;;16.30;11.00;;;;;;;12.82;53.10;99578.84;85240;1322;95502;-66
2021/11/01 13:02:14;;;;;;;14.80;10.70;;;;;;;12.84;52.97;99576.37;83368;1320;2950640;-66
2021/11/01 13:04:36;;;;;;;13.20;9.90;;;;;;;12.82;53.08;99575.34;86237;1313;83235;-66
2021/11/01 13:07:02;;;;;;;12.50;9.90;;;;;;;12.81;53.17;99577.09;86261;1302;94570;-68
2021/11/01 13:09:27;;;;;;;12.40;10.30;;;;;;;12.81;53.29;99576.52;86252;1313;87741;-65
2021/11/01 13:11:58;;;;;;;12.70;9.50;;;;;;;12.82;53.25;99576.69;86263;1310;94515;-66
2021/11/01 13:19:15;;;;;;;11.30;9.70;;;;;;;12.78;53.43;99572.00;86274;1313;97112;-67
2021/11/01 13:21:39;;;;;;;13.10;11.00;;;;;;;12.77;53.66;99569.97;86293;1310;88497;-66
2021/11/01 13:24:01;;;;;;;13.50;10.70;;;;;;;12.78;53.60;99568.08;86231;1309;94742;-65
2021/11/01 13:26:23;;;;;;;12.10;9.40;;;;;;;12.78;53.66;99569.50;86256;1310;79602;-64
2021/11/01 13:36:28;;;;;;;14.30;11.10;;;;;;;12.68;54.05;99559.88;86216;1309;95288;-62
2021/11/01 13:38:44;;;;;;;12.50;9.90;;;;;;;12.65;53.92;99564.08;86243;1313;78042;-62
2021/11/01 13:40:53;;;;;;;10.80;9.60;;;;;;;12.64;53.92;99562.41;86291;1310;80556;-64
2021/11/01 13:43:04;;;;;;;13.10;10.10;;;;;;;12.61;53.96;99558.99;86229;1312;96901;-65
2021/11/01 13:45:17;;;;;;;13.00;9.40;;;;;;;12.58;53.98;99565.35;86266;1313;88215;-65
2021/11/01 13:47:25;;;;;;;;;;;;;;;12.58;54.09;99566.53;86258;1310;93797;-69
2021/11/01 13:49:36;;;;;;;12.90;9.50;;;;;;;12.56;54.02;99565.01;86219;1309;79682;-65
2021/11/01 13:51:48;;;;;;;12.90;10.00;;;;;;;12.52;54.03;99561.96;86259;1313;81623;-61
2021/11/01 13:54:07;;;;;;;13.00;10.00;;;;;;;12.50;54.08;99560.77;86252;1313;98655;-63
2021/11/01 13:56:27;;;;;;;12.40;10.10;;;;;;;12.50;54.10;99560.64;86247;1309;87740;-66
2021/11/01 13:58:53;;;;;;;11.30;9.50;;;;;;;12.49;54.09;99566.30;86195;1310;94728;-65
2021/11/01 14:01:33;;;;;;;13.40;10.10;;;;;;;12.46;54.14;99566.91;86171;1310;81049;-65
2021/11/01 14:11:41;;;;;;;13.70;10.30;;;;;;;12.30;54.22;99568.09;86233;1313;94965;-64
2021/11/01 14:14:08;;;;;;;11.70;9.20;;;;;;;12.27;54.26;99565.70;86229;1309;79489;-65
2021/11/01 14:16:24;;;;;;;12.20;9.00;;;;;;;12.23;54.34;99568.86;86263;1309;83111;-62
2021/11/01 14:29:00;;;;;;;10.60;9.40;;;;;;;12.06;54.54;99577.92;86230;1313;81872;-65
2021/11/01 14:34:15;;;;;;;13.10;9.70;;;;;;;12.05;54.76;99569.37;86157;1310;88718;-67
2021/11/01 14:37:11;;;;;;;11.90;9.80;;;;;;;11.99;54.84;99573.99;86240;1313;94959;-63
2021/11/01 15:15:56;;;;;;;12.20;9.50;;;;;;;11.30;56.97;99560.14;86203;1310;94783;-67